Time;durP1;ratioP1;P1;durP2;ratioP2;P2;SDS_P1;SDS_P2;PMS_P1;PMS_P2;Temp;Humidity;BMP_temperature;BMP_pressure;BME280_temperature;BME280_humidity;BME280_pressure;Samples;Min_cycle;Max_cycle;Signal;HPM_P1;HPM_P2
2021/12/19 00:01:33;;;;;;;36.30;20.90;;;5.10;99.90;;;;;;5076015;28;20209;-70
2021/12/19 00:04:15;;;;;;;37.33;19.63;;;5.10;99.90;;;;;;5075931;28;20226;-70
2021/12/19 00:09:29;;;;;;;35.03;21.35;;;5.10;99.90;;;;;;5076087;28;20702;-70
2021/12/19 00:11:56;;;;;;;36.80;21.38;;;5.20;99.90;;;;;;5075836;28;20242;-70
2021/12/19 00:14:23;;;;;;;38.10;21.73;;;5.20;99.90;;;;;;5075736;28;20608;-71
2021/12/19 00:16:50;;;;;;;34.50;20.60;;;5.20;99.90;;;;;;5075330;28;20206;-70
2021/12/19 00:19:17;;;;;;;38.95;21.45;;;5.10;99.90;;;;;;5075803;28;20207;-70
2021/12/19 00:21:44;;;;;;;38.75;21.58;;;5.10;99.90;;;;;;5075924;28;20297;-70
2021/12/19 00:24:11;;;;;;;37.83;20.25;;;5.00;99.90;;;;;;5075615;28;20229;-70
2021/12/19 00:26:40;;;;;;;36.03;20.08;;;4.90;99.90;;;;;;5075456;28;20201;-70
2021/12/19 00:29:07;;;;;;;39.50;21.30;;;4.90;99.90;;;;;;5075628;28;20297;-70
2021/12/19 00:31:34;;;;;;;38.25;20.73;;;4.90;99.90;;;;;;5075654;28;20207;-70
2021/12/19 00:34:01;;;;;;;43.65;22.50;;;4.80;99.90;;;;;;5075254;28;20309;-70
2021/12/19 00:36:28;;;;;;;39.00;20.75;;;4.60;99.90;;;;;;5074797;28;20226;-70
2021/12/19 00:38:55;;;;;;;39.65;20.27;;;4.40;99.90;;;;;;5075300;28;20205;-70
2021/12/19 00:41:23;;;;;;;40.95;22.02;;;4.40;99.90;;;;;;5075345;28;20199;-70
2021/12/19 00:43:55;;;;;;;36.15;20.85;;;4.40;99.90;;;;;;5074807;28;20226;-70
2021/12/19 00:46:24;;;;;;;40.25;20.75;;;4.40;99.90;;;;;;5075292;28;20289;-70
2021/12/19 00:48:53;;;;;;;44.53;21.90;;;4.30;99.90;;;;;;5075320;28;20718;-70
2021/12/19 00:51:22;;;;;;;38.90;21.73;;;4.30;99.90;;;;;;5075009;28;20207;-70
2021/12/19 00:53:51;;;;;;;42.38;22.60;;;4.30;99.90;;;;;;5075155;28;20223;-70
2021/12/19 00:56:18;;;;;;;42.10;22.67;;;4.40;99.90;;;;;;5074917;28;20562;-70
2021/12/19 00:58:45;;;;;;;41.78;22.23;;;4.40;99.90;;;;;;5074524;28;20214;-70
2021/12/19 01:01:14;;;;;;;37.75;20.75;;;4.40;99.90;;;;;;5075150;28;20537;-70
2021/12/19 01:03:43;;;;;;;42.58;23.13;;;4.40;99.90;;;;;;5074494;28;20219;-70
2021/12/19 01:06:10;;;;;;;43.22;23.33;;;4.40;99.90;;;;;;5074607;28;20226;-70
2021/12/19 01:08:37;;;;;;;45.08;22.48;;;4.40;99.90;;;;;;5074615;28;20198;-70
2021/12/19 01:11:04;;;;;;;42.05;22.95;;;4.50;99.90;;;;;;5074850;28;20224;-70
2021/12/19 01:13:31;;;;;;;41.70;22.52;;;4.50;99.90;;;;;;5074522;28;20227;-70
2021/12/19 01:15:59;;;;;;;39.97;22.00;;;4.50;99.90;;;;;;5074462;28;20313;-70
2021/12/19 01:18:27;;;;;;;43.63;22.92;;;4.50;99.90;;;;;;5074232;28;20203;-70
2021/12/19 01:20:54;;;;;;;41.38;20.50;;;4.60;99.90;;;;;;5074551;28;20564;-70
2021/12/19 01:23:22;;;;;;;40.72;21.85;;;4.70;99.90;;;;;;5074327;28;20222;-70
2021/12/19 01:25:49;;;;;;;41.72;22.75;;;4.80;99.90;;;;;;5073798;28;20205;-70
2021/12/19 01:28:16;;;;;;;37.28;21.30;;;4.90;99.90;;;;;;5073685;28;20199;-70
2021/12/19 01:30:43;;;;;;;37.88;21.55;;;4.90;99.90;;;;;;5074136;28;20207;-70
2021/12/19 01:33:10;;;;;;;40.78;21.25;;;4.90;99.90;;;;;;5074150;28;20229;-70
2021/12/19 01:35:38;;;;;;;42.28;20.80;;;5.00;99.90;;;;;;5073917;28;20688;-70
2021/12/19 01:38:05;;;;;;;41.47;22.58;;;5.10;99.90;;;;;;5074345;28;20282;-70
2021/12/19 01:40:32;;;;;;;41.47;24.00;;;5.10;99.90;;;;;;5074432;28;20299;-70
2021/12/19 01:43:00;;;;;;;35.63;21.33;;;5.20;99.90;;;;;;5074391;28;20202;-70
2021/12/19 01:45:29;;;;;;;40.20;22.13;;;5.30;99.90;;;;;;5073605;28;20668;-70
2021/12/19 01:47:58;;;;;;;41.25;21.42;;;5.30;99.90;;;;;;5074087;28;20207;-70
2021/12/19 01:50:26;;;;;;;42.10;23.02;;;5.20;99.90;;;;;;5074021;28;20694;-70
2021/12/19 01:52:54;;;;;;;40.03;22.95;;;5.30;99.90;;;;;;5074083;28;20203;-70
2021/12/19 01:55:21;;;;;;;40.88;22.25;;;5.30;99.90;;;;;;5073982;28;20219;-70
2021/12/19 01:57:49;;;;;;;43.85;22.20;;;5.30;99.90;;;;;;5073664;28;20207;-70
2021/12/19 02:00:23;;;;;;;41.28;23.10;;;5.30;99.90;;;;;;5073657;28;20368;-70
2021/12/19 02:02:50;;;;;;;37.15;21.10;;;5.30;99.90;;;;;;5073926;28;20213;-70
2021/12/19 02:05:17;;;;;;;40.65;22.52;;;5.30;99.90;;;;;;5073788;28;20202;-70
2021/12/19 02:07:46;;;;;;;41.63;21.88;;;5.30;99.90;;;;;;5074023;28;20238;-70
2021/12/19 02:10:15;;;;;;;42.10;22.17;;;5.30;99.90;;;;;;5074108;28;20206;-70
2021/12/19 02:12:44;;;;;;;40.78;22.20;;;5.30;99.90;;;;;;5073816;28;20202;-70
2021/12/19 02:15:11;;;;;;;45.60;22.55;;;5.30;99.90;;;;;;5073552;28;20211;-70
2021/12/19 02:17:38;;;;;;;42.22;23.30;;;5.30;99.90;;;;;;5073894;28;20604;-70
2021/12/19 02:20:11;;;;;;;45.78;24.02;;;5.00;99.90;;;;;;5073876;28;20648;-70
2021/12/19 02:22:38;;;;;;;47.70;24.98;;;4.90;99.90;;;;;;5073796;28;20225;-70
2021/12/19 02:25:05;;;;;;;47.60;25.20;;;4.80;99.90;;;;;;5073400;28;20223;-70
2021/12/19 02:27:32;;;;;;;42.60;22.17;;;4.80;99.90;;;;;;5073690;28;20206;-70
2021/12/19 02:29:59;;;;;;;43.63;23.75;;;4.70;99.90;;;;;;5073760;28;20203;-70
2021/12/19 02:32:29;;;;;;;50.83;24.40;;;4.50;99.90;;;;;;5073640;28;20294;-70
2021/12/19 02:34:58;;;;;;;49.30;24.73;;;4.30;99.90;;;;;;5073729;28;20339;-70
2021/12/19 02:37:55;;;;;;;47.30;24.30;;;4.40;99.90;;;;;;5073475;28;20602;-70
2021/12/19 02:40:35;;;;;;;48.72;22.92;;;4.40;99.90;;;;;;5075600;28;20653;-70
2021/12/19 02:48:34;;;;;;;51.28;24.35;;;4.60;99.90;;;;;;5077475;28;20196;-70
2021/12/19 02:51:02;;;;;;;53.13;25.70;;;4.50;99.90;;;;;;5077612;28;20203;-70
2021/12/19 02:53:33;;;;;;;44.08;22.52;;;4.50;99.90;;;;;;5077289;28;20233;-70
2021/12/19 02:56:01;;;;;;;56.15;22.98;;;4.60;99.90;;;;;;5076765;28;20309;-70
2021/12/19 02:58:28;;;;;;;52.28;23.95;;;4.50;99.90;;;;;;5077021;28;20224;-70
2021/12/19 03:00:55;;;;;;;48.33;22.58;;;4.40;99.90;;;;;;5077261;28;20213;-70
2021/12/19 03:03:22;;;;;;;43.83;22.42;;;4.20;99.90;;;;;;5076885;28;20223;-70
2021/12/19 03:05:49;;;;;;;48.00;22.08;;;4.10;99.90;;;;;;5076640;28;20209;-70
2021/12/19 03:08:16;;;;;;;43.35;22.58;;;4.10;99.90;;;;;;5077306;28;20207;-70
2021/12/19 03:13:47;;;;;;;47.85;22.75;;;4.10;99.90;;;;;;5076877;28;20642;-70
2021/12/19 03:18:58;;;;;;;43.17;20.77;;;3.90;99.90;;;;;;5077176;28;20202;-70
2021/12/19 03:21:25;;;;;;;44.65;20.75;;;4.10;99.90;;;;;;5076761;28;20225;-70
2021/12/19 03:23:53;;;;;;;43.22;19.60;;;4.20;99.90;;;;;;5076887;28;20569;-70
2021/12/19 03:26:21;;;;;;;38.58;18.20;;;4.40;99.90;;;;;;5076699;28;20201;-70
2021/12/19 03:28:48;;;;;;;34.20;18.67;;;4.50;99.90;;;;;;5076879;28;20199;-70
2021/12/19 03:31:15;;;;;;;31.30;16.83;;;4.50;99.90;;;;;;5076908;28;20213;-70
2021/12/19 03:33:42;;;;;;;35.30;17.35;;;4.60;99.90;;;;;;5076399;28;20229;-70
2021/12/19 03:36:10;;;;;;;34.10;17.92;;;4.60;99.90;;;;;;5076276;28;20572;-70
2021/12/19 03:38:41;;;;;;;38.55;20.88;;;4.70;99.90;;;;;;5076399;28;20641;-70
2021/12/19 03:41:15;;;;;;;34.72;18.10;;;4.70;99.90;;;;;;5076609;28;20231;-70
2021/12/19 03:43:43;;;;;;;33.78;19.23;;;4.80;99.90;;;;;;5076362;28;20223;-70
2021/12/19 03:46:10;;;;;;;36.42;19.08;;;4.70;99.90;;;;;;5075862;28;20198;-70
2021/12/19 03:48:37;;;;;;;36.75;19.30;;;4.70;99.90;;;;;;5076063;28;20206;-70
2021/12/19 03:51:04;;;;;;;38.85;19.50;;;4.60;99.90;;;;;;5075240;28;20544;-70
2021/12/19 03:53:31;;;;;;;39.28;18.25;;;4.50;99.90;;;;;;5076306;28;20234;-70
2021/12/19 03:55:58;;;;;;;37.30;18.05;;;4.20;99.90;;;;;;5075624;28;20226;-70
2021/12/19 03:58:25;;;;;;;37.10;18.25;;;4.20;99.90;;;;;;5075950;28;20215;-70
2021/12/19 04:00:58;;;;;;;38.70;20.02;;;4.30;99.90;;;;;;5076021;28;20230;-70
2021/12/19 04:03:25;;;;;;;37.40;19.85;;;4.40;99.90;;;;;;5075876;28;20234;-70
2021/12/19 04:05:53;;;;;;;32.67;16.52;;;4.50;99.90;;;;;;5076005;28;20194;-70
2021/12/19 04:08:21;;;;;;;31.88;16.10;;;4.50;99.90;;;;;;5076226;28;20209;-70
2021/12/19 04:10:49;;;;;;;34.00;17.25;;;4.60;99.90;;;;;;5076249;28;20566;-70
2021/12/19 04:13:17;;;;;;;28.85;14.77;;;4.60;99.90;;;;;;5075823;28;20314;-70
2021/12/19 04:15:44;;;;;;;25.63;13.85;;;4.60;99.90;;;;;;5075422;28;20207;-70
2021/12/19 04:18:12;;;;;;;25.27;13.98;;;4.60;99.90;;;;;;5075915;28;20205;-70
2021/12/19 04:20:39;;;;;;;25.92;14.70;;;4.60;99.90;;;;;;5075952;28;20209;-70
2021/12/19 04:23:06;;;;;;;26.52;15.88;;;4.70;99.90;;;;;;5075761;28;20873;-70
2021/12/19 04:25:33;;;;;;;31.83;16.30;;;4.70;99.90;;;;;;5075167;28;20203;-70
2021/12/19 04:28:00;;;;;;;22.75;13.20;;;4.80;99.90;;;;;;5075469;28;20307;-70
2021/12/19 04:30:28;;;;;;;28.83;14.73;;;4.80;99.90;;;;;;5075346;28;20213;-70
2021/12/19 04:33:01;;;;;;;24.20;13.32;;;4.80;99.90;;;;;;5075384;28;20207;-70
2021/12/19 04:35:33;;;;;;;21.63;13.30;;;4.80;99.90;;;;;;5075436;28;20244;-70
2021/12/19 04:41:29;;;;;;;25.55;13.20;;;4.80;99.90;;;;;;5091693;28;20541;-69
2021/12/19 04:52:33;;;;;;;20.42;11.30;;;4.80;99.90;;;;;;5091454;28;20251;-69
2021/12/19 04:55:18;;;;;;;17.73;10.45;;;4.80;99.90;;;;;;5090737;28;20312;-70
2021/12/19 04:57:53;;;;;;;18.00;10.00;;;4.80;99.90;;;;;;5091039;28;20209;-70
2021/12/19 05:00:29;;;;;;;23.73;10.80;;;4.80;99.90;;;;;;5091060;28;20706;-69
2021/12/19 05:03:00;;;;;;;17.30;10.63;;;4.70;99.90;;;;;;5091240;28;20275;-69
2021/12/19 05:05:48;;;;;;;17.73;10.93;;;4.70;99.90;;;;;;5090728;28;20210;-69
2021/12/19 05:14:08;;;;;;;16.52;11.30;;;4.90;99.90;;;;;;5090687;28;20221;-69
2021/12/19 05:16:38;;;;;;;21.15;12.23;;;5.00;99.90;;;;;;5090676;28;20206;-69
2021/12/19 05:19:11;;;;;;;19.85;12.15;;;5.00;99.90;;;;;;5091194;28;20226;-69
2021/12/19 05:21:40;;;;;;;22.40;12.00;;;5.00;99.90;;;;;;5090894;28;20198;-70
2021/12/19 05:24:44;;;;;;;21.23;11.73;;;5.00;99.90;;;;;;5090514;28;20226;-69
2021/12/19 05:27:12;;;;;;;22.73;12.43;;;4.90;99.90;;;;;;5090649;28;20206;-69
2021/12/19 05:29:41;;;;;;;20.27;12.23;;;4.90;99.90;;;;;;5090248;28;20259;-69
2021/12/19 05:32:09;;;;;;;24.35;12.05;;;4.90;99.90;;;;;;5090188;28;20210;-69
2021/12/19 05:34:36;;;;;;;23.02;12.20;;;4.90;99.90;;;;;;5089665;28;20229;-69
2021/12/19 05:45:20;;;;;;;19.73;11.35;;;4.80;99.90;;;;;;5090036;28;20327;-69
2021/12/19 05:47:50;;;;;;;18.60;10.68;;;4.70;99.90;;;;;;5090216;28;20198;-69
2021/12/19 05:50:19;;;;;;;20.33;11.60;;;4.70;99.90;;;;;;5088310;28;20204;-69
2021/12/19 05:52:48;;;;;;;21.90;12.23;;;4.60;99.90;;;;;;5076736;28;20209;-69
2021/12/19 05:55:16;;;;;;;22.73;12.38;;;4.50;99.90;;;;;;5076236;28;20551;-69
2021/12/19 05:57:43;;;;;;;17.52;11.10;;;4.50;99.90;;;;;;5076248;28;20650;-69
2021/12/19 06:00:14;;;;;;;22.67;12.05;;;4.40;99.90;;;;;;5076442;28;20558;-69
2021/12/19 06:02:43;;;;;;;16.60;11.05;;;4.40;99.90;;;;;;5076546;28;20213;-69
2021/12/19 06:05:12;;;;;;;19.10;10.63;;;4.40;99.90;;;;;;5076312;28;20229;-69
2021/12/19 06:07:39;;;;;;;22.83;12.73;;;4.30;99.90;;;;;;5076566;28;20589;-70
2021/12/19 06:10:07;;;;;;;17.95;10.77;;;4.20;99.90;;;;;;5076181;28;20209;-69
2021/12/19 06:12:34;;;;;;;28.38;15.80;;;4.20;99.90;;;;;;5076039;28;20213;-69
2021/12/19 06:15:01;;;;;;;24.60;13.20;;;4.20;99.90;;;;;;5076239;28;20316;-69
2021/12/19 06:17:28;;;;;;;21.65;12.32;;;4.10;99.90;;;;;;5076212;28;20245;-69
2021/12/19 06:19:56;;;;;;;20.00;11.38;;;4.20;99.90;;;;;;5075756;28;20222;-69
2021/12/19 06:22:23;;;;;;;19.70;11.07;;;4.20;99.90;;;;;;5075767;28;20213;-69
2021/12/19 06:24:50;;;;;;;18.00;10.52;;;4.20;99.90;;;;;;5075406;28;20222;-69
2021/12/19 06:27:17;;;;;;;20.67;11.20;;;4.20;99.90;;;;;;5075950;28;20203;-69
2021/12/19 06:29:43;;;;;;;19.80;10.40;;;4.20;99.90;;;;;;5076008;28;20288;-69
2021/12/19 06:32:10;;;;;;;14.43;8.30;;;4.20;99.90;;;;;;5076044;28;20293;-69
2021/12/19 06:34:37;;;;;;;17.75;10.68;;;4.20;99.90;;;;;;5075153;28;20314;-69
2021/12/19 06:37:09;;;;;;;17.15;10.25;;;4.20;99.90;;;;;;5075412;28;20213;-69
2021/12/19 06:39:36;;;;;;;19.15;10.18;;;4.20;99.90;;;;;;5075279;28;20226;-69
2021/12/19 06:42:04;;;;;;;18.05;10.55;;;4.20;99.90;;;;;;5075720;28;20249;-69
2021/12/19 06:44:31;;;;;;;16.90;10.43;;;4.20;99.90;;;;;;5075384;28;20225;-70
2021/12/19 06:46:58;;;;;;;16.23;9.68;;;4.30;99.90;;;;;;5075836;28;20203;-69
2021/12/19 06:49:25;;;;;;;20.55;11.10;;;4.20;99.90;;;;;;5075229;28;20241;-69
2021/12/19 06:51:52;;;;;;;19.60;11.13;;;4.30;99.90;;;;;;5075418;28;20294;-69
2021/12/19 06:54:20;;;;;;;15.45;9.68;;;4.30;99.90;;;;;;5075522;28;20219;-69
2021/12/19 06:56:47;;;;;;;13.18;9.02;;;4.30;99.90;;;;;;5075302;28;20213;-69
2021/12/19 06:59:14;;;;;;;22.85;13.30;;;4.30;99.90;;;;;;5075429;28;20293;-69
2021/12/19 07:01:41;;;;;;;21.15;11.70;;;4.20;99.90;;;;;;5075391;28;20316;-69
2021/12/19 07:04:08;;;;;;;13.82;8.55;;;4.20;99.90;;;;;;5074293;28;20219;-69
2021/12/19 07:06:35;;;;;;;13.32;8.52;;;4.20;99.90;;;;;;5074759;28;20199;-69
2021/12/19 07:09:02;;;;;;;13.32;8.45;;;4.20;99.90;;;;;;5075006;28;20209;-69
2021/12/19 07:11:31;;;;;;;18.23;10.10;;;4.10;99.90;;;;;;5075161;28;20289;-69
2021/12/19 07:13:57;;;;;;;13.27;8.70;;;4.10;99.90;;;;;;5074784;28;20315;-69
2021/12/19 07:16:24;;;;;;;13.30;8.02;;;4.10;99.90;;;;;;5074740;28;20205;-69
2021/12/19 07:18:51;;;;;;;14.60;7.40;;;4.20;99.90;;;;;;5074815;28;20309;-69
2021/12/19 07:21:18;;;;;;;12.48;7.63;;;4.20;99.90;;;;;;5074725;28;20265;-69
2021/12/19 07:23:45;;;;;;;15.02;8.57;;;4.20;99.90;;;;;;5074817;28;20314;-69
2021/12/19 07:26:12;;;;;;;12.25;7.10;;;4.10;99.90;;;;;;5074648;28;20207;-69
2021/12/19 07:28:44;;;;;;;11.95;7.30;;;4.20;99.90;;;;;;5074962;28;20298;-69
2021/12/19 07:31:11;;;;;;;10.68;6.82;;;4.20;99.90;;;;;;5074509;28;20284;-69
2021/12/19 07:33:38;;;;;;;13.25;7.28;;;4.10;99.90;;;;;;5074342;28;20706;-69
2021/12/19 07:36:05;;;;;;;15.40;8.95;;;4.10;99.90;;;;;;5074475;28;20203;-69
2021/12/19 07:38:36;;;;;;;15.68;8.90;;;4.10;99.90;;;;;;5074546;28;20220;-71
2021/12/19 07:41:04;;;;;;;12.05;7.38;;;4.10;99.90;;;;;;5074623;28;20280;-69
2021/12/19 07:43:31;;;;;;;13.32;7.25;;;4.10;99.90;;;;;;5074563;28;20700;-69
2021/12/19 07:45:59;;;;;;;14.77;7.20;;;4.00;99.90;;;;;;5074338;28;20207;-70
2021/12/19 07:48:26;;;;;;;13.30;7.15;;;4.10;99.90;;;;;;5074203;28;20203;-69
2021/12/19 07:50:54;;;;;;;10.25;6.95;;;4.10;99.90;;;;;;5074412;28;20225;-69
2021/12/19 07:53:21;;;;;;;10.32;6.28;;;4.10;99.90;;;;;;5074187;28;20317;-69
2021/12/19 07:55:47;;;;;;;10.73;6.47;;;4.10;99.90;;;;;;5073854;28;20202;-69
2021/12/19 07:58:14;;;;;;;8.45;5.72;;;4.00;99.90;;;;;;5073791;28;20298;-69
2021/12/19 08:00:41;;;;;;;10.00;6.03;;;3.90;99.90;;;;;;5074044;28;20314;-69
2021/12/19 08:03:09;;;;;;;7.28;4.93;;;4.00;99.90;;;;;;5074008;28;20226;-69
2021/12/19 08:05:36;;;;;;;10.20;6.43;;;3.90;99.90;;;;;;5074344;28;20585;-69
2021/12/19 08:08:05;;;;;;;12.82;7.97;;;3.90;99.90;;;;;;5073748;28;20668;-69
2021/12/19 08:13:17;;;;;;;8.65;5.88;;;4.10;99.90;;;;;;5073703;28;20295;-69
2021/12/19 08:15:44;;;;;;;9.60;5.82;;;4.10;99.90;;;;;;5073737;28;20209;-69
2021/12/19 08:18:12;;;;;;;9.85;5.75;;;4.00;99.90;;;;;;5074058;28;20297;-69
2021/12/19 08:20:39;;;;;;;10.98;6.85;;;3.90;99.90;;;;;;5074059;28;20610;-69
2021/12/19 08:23:06;;;;;;;9.45;5.57;;;3.90;99.90;;;;;;5073457;28;20297;-69
2021/12/19 08:25:33;;;;;;;10.18;5.95;;;4.00;99.90;;;;;;5073722;28;20199;-69
2021/12/19 08:28:00;;;;;;;7.35;4.75;;;4.10;99.90;;;;;;5073876;28;20301;-69
2021/12/19 08:30:28;;;;;;;7.43;5.85;;;4.10;99.90;;;;;;5073868;28;20229;-69
2021/12/19 08:32:56;;;;;;;7.57;4.82;;;4.20;99.90;;;;;;5073852;28;20280;-69
2021/12/19 08:35:24;;;;;;;8.35;4.45;;;4.20;99.90;;;;;;5073754;28;20203;-69
2021/12/19 08:37:51;;;;;;;6.00;3.90;;;4.30;99.90;;;;;;5073391;28;20280;-69
2021/12/19 08:40:18;;;;;;;6.22;4.30;;;4.30;99.90;;;;;;5073353;28;20239;-69
2021/12/19 08:42:45;;;;;;;7.75;6.25;;;4.30;99.90;;;;;;5073790;28;20560;-69
2021/12/19 08:45:12;;;;;;;5.93;4.28;;;4.40;99.90;;;;;;5073248;28;20696;-69
2021/12/19 08:47:39;;;;;;;7.93;4.95;;;4.40;99.90;;;;;;5073833;28;20205;-69
2021/12/19 08:50:08;;;;;;;7.82;5.03;;;4.40;99.90;;;;;;5073862;28;20202;-69
2021/12/19 08:52:36;;;;;;;6.78;4.30;;;4.50;99.90;;;;;;5073470;28;20198;-69
2021/12/19 08:55:06;;;;;;;7.00;5.10;;;4.50;99.90;;;;;;5072956;28;20223;-69
2021/12/19 08:57:33;;;;;;;7.00;4.70;;;4.50;99.90;;;;;;5073163;28;20301;-69
2021/12/19 09:00:00;;;;;;;9.00;5.78;;;4.50;99.90;;;;;;5073616;28;20210;-69
2021/12/19 09:02:27;;;;;;;8.90;5.95;;;4.60;99.90;;;;;;5073648;28;20203;-69
2021/12/19 09:04:53;;;;;;;10.15;6.35;;;4.40;99.90;;;;;;5072742;28;20313;-69
2021/12/19 09:07:20;;;;;;;9.32;6.18;;;4.30;99.90;;;;;;5073408;28;20229;-69
2021/12/19 09:09:49;;;;;;;8.15;5.30;;;4.30;99.90;;;;;;5073453;28;20556;-70
2021/12/19 09:12:16;;;;;;;7.07;5.07;;;4.40;99.90;;;;;;5073427;28;20211;-69
2021/12/19 09:14:43;;;;;;;7.30;5.55;;;4.50;99.90;;;;;;5073496;28;20325;-70
2021/12/19 09:17:10;;;;;;;8.45;5.18;;;4.50;99.90;;;;;;5073590;28;20211;-69
2021/12/19 09:19:37;;;;;;;10.05;5.72;;;4.50;99.90;;;;;;5073227;28;20203;-69
2021/12/19 09:22:04;;;;;;;8.30;5.00;;;4.60;99.90;;;;;;5073236;28;20257;-69
2021/12/19 09:24:31;;;;;;;9.63;5.40;;;4.60;99.90;;;;;;5073271;28;20219;-69
2021/12/19 09:27:00;;;;;;;10.38;5.50;;;4.60;99.90;;;;;;5075884;28;20206;-69
2021/12/19 09:29:28;;;;;;;13.88;7.97;;;4.70;99.90;;;;;;5077206;28;20199;-69
2021/12/19 09:31:55;;;;;;;9.43;6.45;;;4.70;99.90;;;;;;5076496;28;20202;-69
2021/12/19 09:34:22;;;;;;;7.00;5.38;;;4.70;99.90;;;;;;5076475;28;20222;-70
2021/12/19 09:36:49;;;;;;;7.95;4.28;;;4.80;99.90;;;;;;5076854;28;20205;-69
2021/12/19 09:39:17;;;;;;;6.97;4.85;;;4.80;99.90;;;;;;5076458;28;20676;-69
2021/12/19 09:41:45;;;;;;;6.95;4.53;;;4.70;99.90;;;;;;5076902;28;20230;-69
2021/12/19 09:44:15;;;;;;;8.68;5.20;;;4.70;99.90;;;;;;5076729;28;20285;-69
2021/12/19 09:46:44;;;;;;;8.95;4.88;;;4.70;99.90;;;;;;5076200;28;20213;-69
2021/12/19 09:49:13;;;;;;;7.22;4.47;;;4.70;99.90;;;;;;5076432;28;20722;-69
2021/12/19 09:51:40;;;;;;;9.88;7.30;;;4.60;99.90;;;;;;5076703;28;20195;-69
2021/12/19 09:54:09;;;;;;;6.93;4.80;;;4.70;99.90;;;;;;5076254;28;20229;-69
2021/12/19 09:56:36;;;;;;;6.85;4.10;;;4.60;99.90;;;;;;5076570;28;20202;-68
2021/12/19 09:59:07;;;;;;;4.50;3.50;;;4.60;99.90;;;;;;5075954;28;20199;-69
2021/12/19 10:01:35;;;;;;;6.43;4.75;;;4.60;99.90;;;;;;5076122;28;20242;-69
2021/12/19 10:04:02;;;;;;;7.03;3.47;;;4.60;99.90;;;;;;5076167;28;20561;-69
2021/12/19 10:06:31;;;;;;;4.40;3.83;;;4.60;99.90;;;;;;5076289;28;20199;-69
2021/12/19 10:09:10;;;;;;;4.75;3.53;;;4.70;99.90;;;;;;5076532;28;20209;-69
2021/12/19 10:11:55;;;;;;;5.97;4.03;;;4.80;99.90;;;;;;5076161;28;20563;-69
2021/12/19 10:14:28;;;;;;;5.30;3.20;;;4.90;99.90;;;;;;5075837;28;20226;-69
2021/12/19 10:16:58;;;;;;;4.53;3.80;;;4.90;99.90;;;;;;5075619;28;20756;-69
2021/12/19 10:19:43;;;;;;;4.70;4.20;;;5.00;99.90;;;;;;5076305;28;20667;-69
2021/12/19 10:22:25;;;;;;;4.05;3.10;;;5.00;99.90;;;;;;5076003;28;20250;-69
2021/12/19 10:24:52;;;;;;;3.80;3.20;;;4.90;99.90;;;;;;5075567;28;20222;-70
2021/12/19 10:27:35;;;;;;;5.13;3.50;;;5.00;99.90;;;;;;5075969;28;20207;-69
2021/12/19 10:30:02;;;;;;;5.15;3.42;;;5.00;99.90;;;;;;5076200;28;20202;-69
2021/12/19 10:32:30;;;;;;;4.22;3.70;;;5.00;99.90;;;;;;5075754;28;20198;-69
2021/12/19 10:35:18;;;;;;;4.78;3.20;;;5.00;99.90;;;;;;5075442;28;20310;-69
2021/12/19 10:37:45;;;;;;;3.30;2.53;;;5.10;99.90;;;;;;5075779;28;20209;-69
2021/12/19 10:40:12;;;;;;;4.85;3.17;;;5.20;99.90;;;;;;5075297;28;20565;-69
2021/12/19 10:42:53;;;;;;;3.95;3.25;;;5.20;99.90;;;;;;5075873;28;20219;-69
2021/12/19 10:45:32;;;;;;;5.80;3.50;;;5.20;99.90;;;;;;5075459;28;20214;-69
2021/12/19 10:48:24;;;;;;;6.30;4.35;;;5.30;99.90;;;;;;5075296;28;20256;-69
2021/12/19 10:50:55;;;;;;;4.45;3.35;;;5.20;99.90;;;;;;5075781;28;20560;-69
2021/12/19 10:53:25;;;;;;;5.20;3.08;;;5.30;99.90;;;;;;5075285;28;20233;-69
2021/12/19 10:55:53;;;;;;;4.43;3.53;;;5.30;99.90;;;;;;5075073;28;20209;-69
2021/12/19 10:58:28;;;;;;;5.38;3.60;;;5.20;99.90;;;;;;5075314;28;20713;-70
2021/12/19 11:00:58;;;;;;;3.85;3.17;;;5.20;99.90;;;;;;5075141;28;20313;-69
2021/12/19 11:03:39;;;;;;;9.80;6.10;;;5.30;99.90;;;;;;5075426;28;20226;-69
2021/12/19 11:06:32;;;;;;;5.15;4.05;;;5.20;99.90;;;;;;5075012;28;20206;-69
2021/12/19 11:09:00;;;;;;;3.80;3.30;;;5.20;99.90;;;;;;5075303;28;20206;-69
2021/12/19 11:11:34;;;;;;;3.35;2.65;;;5.20;99.90;;;;;;5075314;28;20568;-69
2021/12/19 11:14:02;;;;;;;3.60;2.60;;;5.20;99.90;;;;;;5074739;28;20230;-69
2021/12/19 11:16:29;;;;;;;4.32;3.45;;;5.20;99.90;;;;;;5074767;28;20202;-69
2021/12/19 11:18:57;;;;;;;3.95;3.10;;;5.20;99.90;;;;;;5074902;28;20229;-69
2021/12/19 11:21:24;;;;;;;5.07;3.80;;;5.30;99.90;;;;;;5074752;28;20677;-69
2021/12/19 11:23:51;;;;;;;7.40;5.38;;;5.30;99.90;;;;;;5074904;28;20265;-69
2021/12/19 11:26:20;;;;;;;2.97;2.67;;;5.30;99.90;;;;;;5074438;28;20198;-69
2021/12/19 11:28:48;;;;;;;3.40;3.10;;;5.10;99.90;;;;;;5074654;28;20203;-69
2021/12/19 11:31:15;;;;;;;5.05;3.72;;;4.80;99.90;;;;;;5074504;28;20199;-69
2021/12/19 11:33:58;;;;;;;3.90;3.55;;;4.80;99.90;;;;;;5074261;28;20704;-69
2021/12/19 11:36:31;;;;;;;4.93;3.63;;;4.80;99.90;;;;;;5074699;28;20206;-69
2021/12/19 11:38:59;;;;;;;4.00;3.60;;;4.90;99.90;;;;;;5074459;28;20206;-69
2021/12/19 11:41:27;;;;;;;5.28;3.80;;;4.70;99.90;;;;;;5074426;28;20233;-69
2021/12/19 11:43:56;;;;;;;4.15;3.75;;;4.50;99.90;;;;;;5073983;28;20222;-69
2021/12/19 11:46:44;;;;;;;5.72;4.50;;;4.60;99.90;;;;;;5074369;28;20298;-69
2021/12/19 11:49:16;;;;;;;5.90;4.70;;;4.50;99.90;;;;;;5074115;28;20664;-69
2021/12/19 11:51:44;;;;;;;6.05;4.35;;;4.60;99.90;;;;;;5074275;28;20203;-69
2021/12/19 11:54:16;;;;;;;5.97;4.45;;;4.70;99.90;;;;;;5074701;28;20317;-69
2021/12/19 11:57:08;;;;;;;6.95;4.50;;;4.80;99.90;;;;;;5074051;28;20217;-69
2021/12/19 11:59:35;;;;;;;6.82;4.75;;;4.70;99.90;;;;;;5074497;28;20557;-69
2021/12/19 12:02:22;;;;;;;5.70;4.22;;;4.70;99.90;;;;;;5073717;28;20272;-69
2021/12/19 12:05:23;;;;;;;6.28;4.30;;;4.80;99.90;;;;;;5073738;28;20703;-69
2021/12/19 12:08:14;;;;;;;5.85;4.15;;;4.90;99.90;;;;;;5073798;28;20270;-69
2021/12/19 12:11:11;;;;;;;5.65;4.50;;;4.90;99.90;;;;;;5073994;28;20298;-69
2021/12/19 12:13:40;;;;;;;6.88;5.18;;;4.90;99.90;;;;;;5073851;28;20219;-69
2021/12/19 12:16:41;;;;;;;6.03;4.93;;;5.10;99.90;;;;;;5073741;28;20198;-69
2021/12/19 12:19:08;;;;;;;6.25;5.07;;;5.20;99.90;;;;;;5040888;28;20294;-69
2021/12/19 12:21:41;;;;;;;6.40;5.40;;;5.10;99.90;;;;;;5073453;28;20223;-69
2021/12/19 12:24:18;;;;;;;5.57;5.03;;;5.10;99.90;;;;;;5073528;28;20219;-69
2021/12/19 12:26:57;;;;;;;7.45;4.95;;;5.20;99.90;;;;;;5073993;28;20203;-69
2021/12/19 12:29:25;;;;;;;7.80;5.22;;;5.20;99.90;;;;;;5073826;28;20207;-69
2021/12/19 12:31:53;;;;;;;6.85;5.18;;;5.20;99.90;;;;;;5073867;28;20198;-69
2021/12/19 12:34:20;;;;;;;5.90;4.75;;;5.10;99.90;;;;;;5073733;28;20222;-69
2021/12/19 12:36:47;;;;;;;5.68;4.82;;;5.00;99.90;;;;;;5073477;28;20297;-69
2021/12/19 12:39:21;;;;;;;8.13;5.55;;;4.90;99.90;;;;;;5073260;28;20215;-69
2021/12/19 12:41:58;;;;;;;8.00;5.60;;;4.90;99.90;;;;;;5073592;28;20226;-69
2021/12/19 12:44:25;;;;;;;6.82;5.18;;;4.80;99.90;;;;;;5073426;28;20684;-69
2021/12/19 12:46:52;;;;;;;5.03;4.20;;;4.70;99.90;;;;;;5073657;28;20203;-69
2021/12/19 12:49:21;;;;;;;5.85;4.95;;;4.80;99.90;;;;;;5073874;28;20199;-69
2021/12/19 12:51:49;;;;;;;7.82;5.25;;;4.80;99.90;;;;;;5073885;28;20205;-69
2021/12/19 12:54:21;;;;;;;7.43;5.60;;;4.80;99.90;;;;;;5073596;28;20310;-69
2021/12/19 12:56:51;;;;;;;7.40;4.95;;;4.80;99.90;;;;;;5073422;28;20202;-69
2021/12/19 12:59:20;;;;;;;6.43;5.13;;;4.80;99.90;;;;;;5073666;28;20256;-69
2021/12/19 13:01:50;;;;;;;6.72;4.90;;;4.90;99.90;;;;;;5075896;28;20221;-69
2021/12/19 13:04:20;;;;;;;7.18;4.75;;;5.00;99.90;;;;;;5077285;28;20227;-69
2021/12/19 13:06:56;;;;;;;6.07;4.70;;;5.00;99.90;;;;;;5077166;28;20206;-69
2021/12/19 13:09:30;;;;;;;6.43;5.28;;;5.00;99.90;;;;;;5077798;28;20202;-69
2021/12/19 13:12:10;;;;;;;6.93;5.53;;;5.10;99.90;;;;;;5077557;28;20208;-69
2021/12/19 13:14:39;;;;;;;6.35;5.30;;;5.10;99.90;;;;;;5077299;28;20230;-69
2021/12/19 13:17:08;;;;;;;7.40;5.45;;;5.10;99.90;;;;;;5077172;28;20203;-69
2021/12/19 13:19:50;;;;;;;7.50;5.65;;;5.10;99.90;;;;;;5077206;28;20545;-69
2021/12/19 13:22:22;;;;;;;6.60;5.63;;;5.10;99.90;;;;;;5076880;28;20222;-69
2021/12/19 13:24:53;;;;;;;7.90;5.82;;;5.10;99.90;;;;;;5077057;28;20223;-69
2021/12/19 13:27:22;;;;;;;7.53;5.88;;;5.00;99.90;;;;;;5076922;28;20268;-69
2021/12/19 13:30:14;;;;;;;7.72;5.88;;;5.00;99.90;;;;;;5077010;28;20202;-69
2021/12/19 13:32:42;;;;;;;7.57;5.45;;;5.00;99.90;;;;;;5077023;28;20358;-69
2021/12/19 13:35:15;;;;;;;9.25;6.40;;;5.00;99.90;;;;;;5076250;28;20700;-69
2021/12/19 13:38:04;;;;;;;7.60;5.82;;;5.00;99.90;;;;;;5076959;28;20209;-69
2021/12/19 13:40:35;;;;;;;10.98;5.57;;;5.10;99.90;;;;;;5072012;28;20210;-69
2021/12/19 13:43:04;;;;;;;7.78;6.05;;;5.10;99.90;;;;;;5076790;28;20227;-69